sensor_id;sensor_type;location;lat;lon;timestamp;P1;durP1;ratioP1;P2;durP2;ratioP2
58137;SDS011;43955;47.362;18.930;2022-12-08T00:01:17;35.28;;;17.10;;
58137;SDS011;43955;47.362;18.930;2022-12-08T00:03:45;36.25;;;17.23;;
58137;SDS011;43955;47.362;18.930;2022-12-08T00:09:18;29.73;;;15.07;;
58137;SDS011;43955;47.362;18.930;2022-12-08T00:11:50;28.48;;;13.65;;
58137;SDS011;43955;47.362;18.930;2022-12-08T00:14:29;32.05;;;13.88;;
58137;SDS011;43955;47.362;18.930;2022-12-08T00:17:01;24.77;;;12.82;;
58137;SDS011;43955;47.362;18.930;2022-12-08T00:19:29;32.05;;;14.15;;
58137;SDS011;43955;47.362;18.930;2022-12-08T00:21:57;23.33;;;12.57;;
58137;SDS011;43955;47.362;18.930;2022-12-08T00:24:28;21.42;;;11.45;;
58137;SDS011;43955;47.362;18.930;2022-12-08T00:26:57;28.92;;;12.60;;
58137;SDS011;43955;47.362;18.930;2022-12-08T00:29:24;21.98;;;11.38;;
58137;SDS011;43955;47.362;18.930;2022-12-08T00:31:51;30.70;;;11.77;;
58137;SDS011;43955;47.362;18.930;2022-12-08T00:34:19;29.92;;;14.10;;
58137;SDS011;43955;47.362;18.930;2022-12-08T00:36:46;22.60;;;12.40;;
58137;SDS011;43955;47.362;18.930;2022-12-08T00:39:14;23.25;;;11.32;;
58137;SDS011;43955;47.362;18.930;2022-12-08T00:41:42;19.58;;;9.52;;
58137;SDS011;43955;47.362;18.930;2022-12-08T00:44:28;19.65;;;10.35;;
58137;SDS011;43955;47.362;18.930;2022-12-08T00:46:56;20.17;;;11.27;;
58137;SDS011;43955;47.362;18.930;2022-12-08T00:49:23;20.88;;;10.60;;
58137;SDS011;43955;47.362;18.930;2022-12-08T00:51:50;18.73;;;9.52;;
58137;SDS011;43955;47.362;18.930;2022-12-08T00:54:18;20.52;;;10.50;;
58137;SDS011;43955;47.362;18.930;2022-12-08T00:56:46;17.10;;;8.82;;
58137;SDS011;43955;47.362;18.930;2022-12-08T00:59:13;21.55;;;9.75;;
58137;SDS011;43955;47.362;18.930;2022-12-08T01:01:42;19.90;;;9.88;;
58137;SDS011;43955;47.362;18.930;2022-12-08T01:04:11;22.48;;;10.57;;
58137;SDS011;43955;47.362;18.930;2022-12-08T01:06:41;21.37;;;11.02;;
58137;SDS011;43955;47.362;18.930;2022-12-08T01:09:10;22.13;;;10.18;;
58137;SDS011;43955;47.362;18.930;2022-12-08T01:11:38;19.58;;;10.00;;
58137;SDS011;43955;47.362;18.930;2022-12-08T01:14:06;22.55;;;10.85;;
58137;SDS011;43955;47.362;18.930;2022-12-08T01:16:33;20.50;;;9.57;;
58137;SDS011;43955;47.362;18.930;2022-12-08T01:19:02;20.67;;;10.52;;
58137;SDS011;43955;47.362;18.930;2022-12-08T01:21:29;22.80;;;10.13;;
58137;SDS011;43955;47.362;18.930;2022-12-08T01:23:58;23.27;;;11.23;;
58137;SDS011;43955;47.362;18.930;2022-12-08T01:26:26;24.98;;;10.23;;
58137;SDS011;43955;47.362;18.930;2022-12-08T01:28:53;17.92;;;9.18;;
58137;SDS011;43955;47.362;18.930;2022-12-08T01:31:21;18.73;;;10.18;;
58137;SDS011;43955;47.362;18.930;2022-12-08T01:33:48;22.02;;;9.93;;
58137;SDS011;43955;47.362;18.930;2022-12-08T01:36:23;20.25;;;9.35;;
58137;SDS011;43955;47.362;18.930;2022-12-08T01:38:52;21.52;;;11.77;;
58137;SDS011;43955;47.362;18.930;2022-12-08T01:41:21;42.10;;;10.85;;
58137;SDS011;43955;47.362;18.930;2022-12-08T01:46:23;23.58;;;11.30;;
58137;SDS011;43955;47.362;18.930;2022-12-08T01:48:51;23.15;;;11.10;;
58137;SDS011;43955;47.362;18.930;2022-12-08T01:51:21;22.17;;;10.27;;
58137;SDS011;43955;47.362;18.930;2022-12-08T01:53:49;22.45;;;10.57;;
58137;SDS011;43955;47.362;18.930;2022-12-08T01:56:21;29.02;;;12.43;;
58137;SDS011;43955;47.362;18.930;2022-12-08T01:58:54;26.50;;;11.80;;
58137;SDS011;43955;47.362;18.930;2022-12-08T02:01:21;20.58;;;9.98;;
58137;SDS011;43955;47.362;18.930;2022-12-08T02:04:00;23.67;;;11.48;;
58137;SDS011;43955;47.362;18.930;2022-12-08T02:06:28;27.02;;;10.95;;
58137;SDS011;43955;47.362;18.930;2022-12-08T02:08:59;29.35;;;13.18;;
58137;SDS011;43955;47.362;18.930;2022-12-08T02:11:27;33.72;;;15.10;;
58137;SDS011;43955;47.362;18.930;2022-12-08T02:13:55;131.95;;;53.38;;
58137;SDS011;43955;47.362;18.930;2022-12-08T02:24:27;83.95;;;44.55;;
58137;SDS011;43955;47.362;18.930;2022-12-08T02:27:14;51.15;;;23.23;;
58137;SDS011;43955;47.362;18.930;2022-12-08T02:30:01;48.42;;;25.52;;
58137;SDS011;43955;47.362;18.930;2022-12-08T02:43:36;35.40;;;17.12;;
58137;SDS011;43955;47.362;18.930;2022-12-08T02:46:08;33.42;;;18.65;;
58137;SDS011;43955;47.362;18.930;2022-12-08T02:48:38;34.10;;;17.75;;
58137;SDS011;43955;47.362;18.930;2022-12-08T02:51:05;74.85;;;34.05;;
58137;SDS011;43955;47.362;18.930;2022-12-08T02:53:32;65.55;;;29.75;;
58137;SDS011;43955;47.362;18.930;2022-12-08T03:04:44;65.55;;;29.63;;
58137;SDS011;43955;47.362;18.930;2022-12-08T03:09:55;46.07;;;23.57;;
58137;SDS011;43955;47.362;18.930;2022-12-08T03:12:40;49.22;;;22.08;;
58137;SDS011;43955;47.362;18.930;2022-12-08T03:15:15;49.63;;;23.62;;
58137;SDS011;43955;47.362;18.930;2022-12-08T03:17:46;66.30;;;27.52;;
58137;SDS011;43955;47.362;18.930;2022-12-08T03:20:17;55.35;;;25.27;;
58137;SDS011;43955;47.362;18.930;2022-12-08T03:22:47;58.72;;;26.12;;
58137;SDS011;43955;47.362;18.930;2022-12-08T03:25:16;37.60;;;18.23;;
58137;SDS011;43955;47.362;18.930;2022-12-08T03:27:47;41.40;;;19.15;;
58137;SDS011;43955;47.362;18.930;2022-12-08T03:30:15;37.60;;;18.17;;
58137;SDS011;43955;47.362;18.930;2022-12-08T03:32:43;45.17;;;19.37;;
58137;SDS011;43955;47.362;18.930;2022-12-08T03:35:16;40.42;;;18.15;;
58137;SDS011;43955;47.362;18.930;2022-12-08T03:37:48;47.92;;;23.98;;
58137;SDS011;43955;47.362;18.930;2022-12-08T03:40:17;37.22;;;18.45;;
58137;SDS011;43955;47.362;18.930;2022-12-08T03:42:45;38.90;;;17.83;;
58137;SDS011;43955;47.362;18.930;2022-12-08T03:45:12;36.83;;;17.90;;
58137;SDS011;43955;47.362;18.930;2022-12-08T03:47:39;32.08;;;17.65;;
58137;SDS011;43955;47.362;18.930;2022-12-08T03:50:07;43.42;;;19.05;;
58137;SDS011;43955;47.362;18.930;2022-12-08T03:52:34;48.03;;;20.55;;
58137;SDS011;43955;47.362;18.930;2022-12-08T03:55:01;49.33;;;20.52;;
58137;SDS011;43955;47.362;18.930;2022-12-08T03:57:29;45.00;;;20.65;;
58137;SDS011;43955;47.362;18.930;2022-12-08T03:59:56;46.78;;;21.30;;
58137;SDS011;43955;47.362;18.930;2022-12-08T04:02:23;45.47;;;20.90;;
58137;SDS011;43955;47.362;18.930;2022-12-08T04:04:51;43.53;;;20.05;;
58137;SDS011;43955;47.362;18.930;2022-12-08T04:07:18;42.30;;;21.05;;
58137;SDS011;43955;47.362;18.930;2022-12-08T04:09:45;49.55;;;21.95;;
58137;SDS011;43955;47.362;18.930;2022-12-08T04:12:12;40.08;;;19.60;;
58137;SDS011;43955;47.362;18.930;2022-12-08T04:14:39;44.47;;;23.52;;
58137;SDS011;43955;47.362;18.930;2022-12-08T04:17:06;40.50;;;20.33;;
58137;SDS011;43955;47.362;18.930;2022-12-08T04:19:34;43.63;;;20.92;;
58137;SDS011;43955;47.362;18.930;2022-12-08T04:22:01;46.42;;;21.42;;
58137;SDS011;43955;47.362;18.930;2022-12-08T04:24:28;42.47;;;20.85;;
58137;SDS011;43955;47.362;18.930;2022-12-08T04:26:55;41.08;;;20.17;;
58137;SDS011;43955;47.362;18.930;2022-12-08T04:29:22;43.72;;;19.58;;
58137;SDS011;43955;47.362;18.930;2022-12-08T04:31:49;44.08;;;19.27;;
58137;SDS011;43955;47.362;18.930;2022-12-08T04:34:17;43.75;;;20.10;;
58137;SDS011;43955;47.362;18.930;2022-12-08T04:36:44;43.40;;;19.20;;
58137;SDS011;43955;47.362;18.930;2022-12-08T04:39:11;42.60;;;20.70;;
58137;SDS011;43955;47.362;18.930;2022-12-08T04:41:38;52.90;;;23.70;;
58137;SDS011;43955;47.362;18.930;2022-12-08T04:44:05;57.00;;;25.00;;
58137;SDS011;43955;47.362;18.930;2022-12-08T04:46:32;53.92;;;24.95;;
58137;SDS011;43955;47.362;18.930;2022-12-08T04:49:03;68.22;;;28.23;;
58137;SDS011;43955;47.362;18.930;2022-12-08T04:51:30;60.30;;;25.37;;
58137;SDS011;43955;47.362;18.930;2022-12-08T04:53:57;67.37;;;27.90;;
58137;SDS011;43955;47.362;18.930;2022-12-08T04:56:25;63.42;;;28.67;;
58137;SDS011;43955;47.362;18.930;2022-12-08T04:58:52;63.13;;;25.73;;
58137;SDS011;43955;47.362;18.930;2022-12-08T05:01:19;53.50;;;26.02;;
58137;SDS011;43955;47.362;18.930;2022-12-08T05:03:46;70.87;;;29.87;;
58137;SDS011;43955;47.362;18.930;2022-12-08T05:06:14;54.63;;;27.92;;
58137;SDS011;43955;47.362;18.930;2022-12-08T05:08:41;45.42;;;18.55;;
58137;SDS011;43955;47.362;18.930;2022-12-08T05:11:09;78.45;;;36.42;;
58137;SDS011;43955;47.362;18.930;2022-12-08T05:13:37;89.18;;;36.97;;
58137;SDS011;43955;47.362;18.930;2022-12-08T05:16:08;64.22;;;30.77;;
58137;SDS011;43955;47.362;18.930;2022-12-08T05:18:38;75.65;;;30.23;;
58137;SDS011;43955;47.362;18.930;2022-12-08T05:21:06;59.88;;;28.15;;
58137;SDS011;43955;47.362;18.930;2022-12-08T05:23:33;68.18;;;30.90;;
58137;SDS011;43955;47.362;18.930;2022-12-08T05:26:01;78.03;;;36.38;;
58137;SDS011;43955;47.362;18.930;2022-12-08T05:28:28;60.72;;;28.12;;
58137;SDS011;43955;47.362;18.930;2022-12-08T05:31:08;66.32;;;26.90;;
58137;SDS011;43955;47.362;18.930;2022-12-08T05:33:35;64.53;;;28.67;;
58137;SDS011;43955;47.362;18.930;2022-12-08T05:36:03;64.30;;;30.88;;
58137;SDS011;43955;47.362;18.930;2022-12-08T05:38:30;61.90;;;29.65;;
58137;SDS011;43955;47.362;18.930;2022-12-08T05:40:57;52.47;;;26.45;;
58137;SDS011;43955;47.362;18.930;2022-12-08T05:43:24;46.10;;;23.85;;
58137;SDS011;43955;47.362;18.930;2022-12-08T05:45:53;52.58;;;28.20;;
58137;SDS011;43955;47.362;18.930;2022-12-08T05:48:20;53.90;;;27.08;;
58137;SDS011;43955;47.362;18.930;2022-12-08T05:50:49;66.47;;;31.90;;
58137;SDS011;43955;47.362;18.930;2022-12-08T05:53:18;61.30;;;28.85;;
58137;SDS011;43955;47.362;18.930;2022-12-08T05:55:45;59.75;;;28.90;;
58137;SDS011;43955;47.362;18.930;2022-12-08T05:58:14;60.12;;;29.48;;
58137;SDS011;43955;47.362;18.930;2022-12-08T06:00:43;64.68;;;29.90;;
58137;SDS011;43955;47.362;18.930;2022-12-08T06:03:13;61.35;;;29.63;;
58137;SDS011;43955;47.362;18.930;2022-12-08T06:05:41;50.17;;;24.95;;
58137;SDS011;43955;47.362;18.930;2022-12-08T06:08:09;54.95;;;27.37;;
58137;SDS011;43955;47.362;18.930;2022-12-08T06:10:37;54.53;;;26.87;;
58137;SDS011;43955;47.362;18.930;2022-12-08T06:13:05;55.00;;;28.55;;
58137;SDS011;43955;47.362;18.930;2022-12-08T06:15:33;71.47;;;30.17;;
58137;SDS011;43955;47.362;18.930;2022-12-08T06:18:01;62.25;;;30.92;;
58137;SDS011;43955;47.362;18.930;2022-12-08T06:20:28;67.85;;;31.90;;
58137;SDS011;43955;47.362;18.930;2022-12-08T06:22:55;65.18;;;30.80;;
58137;SDS011;43955;47.362;18.930;2022-12-08T06:25:23;63.72;;;31.77;;
58137;SDS011;43955;47.362;18.930;2022-12-08T06:27:51;66.32;;;31.02;;
58137;SDS011;43955;47.362;18.930;2022-12-08T06:30:18;61.42;;;28.02;;
58137;SDS011;43955;47.362;18.930;2022-12-08T06:32:45;51.67;;;28.02;;
58137;SDS011;43955;47.362;18.930;2022-12-08T06:35:12;64.12;;;26.92;;
58137;SDS011;43955;47.362;18.930;2022-12-08T06:37:39;63.17;;;28.05;;
58137;SDS011;43955;47.362;18.930;2022-12-08T06:40:07;59.22;;;27.55;;
58137;SDS011;43955;47.362;18.930;2022-12-08T06:42:34;55.83;;;27.52;;
58137;SDS011;43955;47.362;18.930;2022-12-08T06:45:12;54.38;;;26.48;;
58137;SDS011;43955;47.362;18.930;2022-12-08T06:47:42;55.88;;;28.12;;
58137;SDS011;43955;47.362;18.930;2022-12-08T06:50:10;57.88;;;27.67;;
58137;SDS011;43955;47.362;18.930;2022-12-08T06:52:38;50.30;;;24.15;;
58137;SDS011;43955;47.362;18.930;2022-12-08T06:55:24;54.78;;;27.23;;
58137;SDS011;43955;47.362;18.930;2022-12-08T06:58:11;49.00;;;24.58;;
58137;SDS011;43955;47.362;18.930;2022-12-08T07:00:40;68.12;;;32.85;;
58137;SDS011;43955;47.362;18.930;2022-12-08T07:03:08;67.55;;;33.22;;
58137;SDS011;43955;47.362;18.930;2022-12-08T07:05:36;64.18;;;33.13;;
58137;SDS011;43955;47.362;18.930;2022-12-08T07:08:04;110.43;;;33.47;;
58137;SDS011;43955;47.362;18.930;2022-12-08T07:10:32;72.85;;;34.65;;
58137;SDS011;43955;47.362;18.930;2022-12-08T07:13:00;63.90;;;31.70;;
58137;SDS011;43955;47.362;18.930;2022-12-08T07:15:28;57.40;;;28.30;;
58137;SDS011;43955;47.362;18.930;2022-12-08T07:17:55;44.30;;;24.92;;
58137;SDS011;43955;47.362;18.930;2022-12-08T07:20:27;69.00;;;32.00;;
58137;SDS011;43955;47.362;18.930;2022-12-08T07:22:54;59.97;;;28.10;;
58137;SDS011;43955;47.362;18.930;2022-12-08T07:25:22;70.45;;;35.63;;
58137;SDS011;43955;47.362;18.930;2022-12-08T07:27:49;76.78;;;36.03;;
58137;SDS011;43955;47.362;18.930;2022-12-08T07:30:18;67.05;;;32.78;;
58137;SDS011;43955;47.362;18.930;2022-12-08T07:32:45;54.58;;;27.52;;
58137;SDS011;43955;47.362;18.930;2022-12-08T07:35:12;65.85;;;34.30;;
58137;SDS011;43955;47.362;18.930;2022-12-08T07:37:39;64.55;;;34.05;;
58137;SDS011;43955;47.362;18.930;2022-12-08T07:40:07;51.67;;;27.35;;
58137;SDS011;43955;47.362;18.930;2022-12-08T07:42:35;51.42;;;26.83;;
58137;SDS011;43955;47.362;18.930;2022-12-08T07:45:02;50.03;;;24.58;;
58137;SDS011;43955;47.362;18.930;2022-12-08T07:47:30;47.35;;;23.15;;
58137;SDS011;43955;47.362;18.930;2022-12-08T07:49:57;43.72;;;23.23;;
58137;SDS011;43955;47.362;18.930;2022-12-08T07:52:24;48.22;;;23.00;;
58137;SDS011;43955;47.362;18.930;2022-12-08T07:54:51;49.75;;;21.98;;
58137;SDS011;43955;47.362;18.930;2022-12-08T07:57:19;52.75;;;24.25;;
58137;SDS011;43955;47.362;18.930;2022-12-08T07:59:46;45.35;;;22.30;;
58137;SDS011;43955;47.362;18.930;2022-12-08T08:02:16;44.50;;;22.30;;
58137;SDS011;43955;47.362;18.930;2022-12-08T08:04:51;47.67;;;22.83;;
58137;SDS011;43955;47.362;18.930;2022-12-08T08:07:19;44.53;;;21.02;;
58137;SDS011;43955;47.362;18.930;2022-12-08T08:09:46;44.70;;;20.95;;
58137;SDS011;43955;47.362;18.930;2022-12-08T08:12:13;47.40;;;22.27;;
58137;SDS011;43955;47.362;18.930;2022-12-08T08:14:57;49.65;;;22.83;;
58137;SDS011;43955;47.362;18.930;2022-12-08T08:17:25;40.83;;;23.30;;
58137;SDS011;43955;47.362;18.930;2022-12-08T08:19:53;41.50;;;22.65;;
58137;SDS011;43955;47.362;18.930;2022-12-08T08:22:20;48.33;;;22.75;;
58137;SDS011;43955;47.362;18.930;2022-12-08T08:24:48;45.20;;;24.42;;
58137;SDS011;43955;47.362;18.930;2022-12-08T08:27:15;53.13;;;23.98;;
58137;SDS011;43955;47.362;18.930;2022-12-08T08:29:42;47.50;;;22.87;;
58137;SDS011;43955;47.362;18.930;2022-12-08T08:32:10;50.72;;;23.30;;
58137;SDS011;43955;47.362;18.930;2022-12-08T08:34:37;44.20;;;23.50;;
58137;SDS011;43955;47.362;18.930;2022-12-08T08:37:04;51.30;;;23.90;;
58137;SDS011;43955;47.362;18.930;2022-12-08T08:39:31;41.88;;;23.40;;
58137;SDS011;43955;47.362;18.930;2022-12-08T08:41:59;50.17;;;23.80;;
58137;SDS011;43955;47.362;18.930;2022-12-08T08:44:26;47.17;;;23.77;;
58137;SDS011;43955;47.362;18.930;2022-12-08T08:46:53;47.40;;;23.90;;
58137;SDS011;43955;47.362;18.930;2022-12-08T08:49:21;52.10;;;24.45;;
58137;SDS011;43955;47.362;18.930;2022-12-08T08:51:48;46.80;;;24.00;;
58137;SDS011;43955;47.362;18.930;2022-12-08T08:54:15;53.08;;;24.45;;
58137;SDS011;43955;47.362;18.930;2022-12-08T08:56:42;45.38;;;22.85;;
58137;SDS011;43955;47.362;18.930;2022-12-08T08:59:09;51.90;;;24.25;;
58137;SDS011;43955;47.362;18.930;2022-12-08T09:01:37;54.75;;;23.62;;
58137;SDS011;43955;47.362;18.930;2022-12-08T09:04:04;58.08;;;24.20;;
58137;SDS011;43955;47.362;18.930;2022-12-08T09:06:31;51.88;;;24.48;;
58137;SDS011;43955;47.362;18.930;2022-12-08T09:08:59;50.90;;;24.08;;
58137;SDS011;43955;47.362;18.930;2022-12-08T09:11:26;47.17;;;22.98;;
58137;SDS011;43955;47.362;18.930;2022-12-08T09:13:53;50.90;;;24.52;;
58137;SDS011;43955;47.362;18.930;2022-12-08T09:16:21;40.88;;;22.00;;
58137;SDS011;43955;47.362;18.930;2022-12-08T09:18:49;53.47;;;23.73;;
58137;SDS011;43955;47.362;18.930;2022-12-08T09:21:18;42.15;;;21.15;;
58137;SDS011;43955;47.362;18.930;2022-12-08T09:23:50;38.67;;;19.55;;
58137;SDS011;43955;47.362;18.930;2022-12-08T09:26:18;37.63;;;18.48;;
58137;SDS011;43955;47.362;18.930;2022-12-08T09:28:51;37.40;;;18.12;;
58137;SDS011;43955;47.362;18.930;2022-12-08T09:31:20;44.97;;;19.12;;
58137;SDS011;43955;47.362;18.930;2022-12-08T09:33:48;38.63;;;18.02;;
58137;SDS011;43955;47.362;18.930;2022-12-08T09:36:18;35.97;;;18.60;;
58137;SDS011;43955;47.362;18.930;2022-12-08T09:38:52;39.00;;;20.77;;
58137;SDS011;43955;47.362;18.930;2022-12-08T09:41:33;38.22;;;17.80;;
58137;SDS011;43955;47.362;18.930;2022-12-08T09:44:54;42.03;;;18.08;;
58137;SDS011;43955;47.362;18.930;2022-12-08T09:49:55;32.50;;;16.62;;
58137;SDS011;43955;47.362;18.930;2022-12-08T09:52:31;41.70;;;15.82;;
58137;SDS011;43955;47.362;18.930;2022-12-08T09:55:02;32.72;;;15.23;;
58137;SDS011;43955;47.362;18.930;2022-12-08T09:57:32;32.83;;;15.02;;
58137;SDS011;43955;47.362;18.930;2022-12-08T10:00:00;32.95;;;15.95;;
58137;SDS011;43955;47.362;18.930;2022-12-08T10:02:32;38.40;;;17.58;;
58137;SDS011;43955;47.362;18.930;2022-12-08T10:04:59;35.75;;;16.52;;
58137;SDS011;43955;47.362;18.930;2022-12-08T10:10:40;36.95;;;14.95;;
58137;SDS011;43955;47.362;18.930;2022-12-08T10:16:22;34.80;;;15.48;;
58137;SDS011;43955;47.362;18.930;2022-12-08T10:19:00;28.38;;;14.68;;
58137;SDS011;43955;47.362;18.930;2022-12-08T10:21:37;27.30;;;14.05;;
58137;SDS011;43955;47.362;18.930;2022-12-08T10:24:52;28.08;;;13.68;;
58137;SDS011;43955;47.362;18.930;2022-12-08T10:27:09;23.70;;;12.48;;
58137;SDS011;43955;47.362;18.930;2022-12-08T10:29:38;24.70;;;14.87;;
58137;SDS011;43955;47.362;18.930;2022-12-08T10:32:15;26.20;;;12.98;;
58137;SDS011;43955;47.362;18.930;2022-12-08T10:37:58;23.83;;;13.05;;
58137;SDS011;43955;47.362;18.930;2022-12-08T10:40:28;23.62;;;12.88;;
58137;SDS011;43955;47.362;18.930;2022-12-08T10:43:11;27.58;;;13.65;;
58137;SDS011;43955;47.362;18.930;2022-12-08T10:45:43;27.37;;;13.93;;
58137;SDS011;43955;47.362;18.930;2022-12-08T10:48:18;27.70;;;13.25;;
58137;SDS011;43955;47.362;18.930;2022-12-08T10:53:26;23.92;;;12.25;;
58137;SDS011;43955;47.362;18.930;2022-12-08T11:01:12;25.83;;;13.95;;
58137;SDS011;43955;47.362;18.930;2022-12-08T11:06:34;24.10;;;12.75;;
58137;SDS011;43955;47.362;18.930;2022-12-08T11:09:21;28.75;;;12.80;;
58137;SDS011;43955;47.362;18.930;2022-12-08T11:11:52;24.70;;;12.32;;
58137;SDS011;43955;47.362;18.930;2022-12-08T11:17:04;25.65;;;12.93;;
58137;SDS011;43955;47.362;18.930;2022-12-08T11:19:37;30.10;;;11.77;;
58137;SDS011;43955;47.362;18.930;2022-12-08T11:22:21;24.92;;;11.85;;
58137;SDS011;43955;47.362;18.930;2022-12-08T11:25:00;22.87;;;12.15;;
58137;SDS011;43955;47.362;18.930;2022-12-08T11:27:34;38.70;;;13.00;;
58137;SDS011;43955;47.362;18.930;2022-12-08T11:30:05;23.50;;;11.35;;
58137;SDS011;43955;47.362;18.930;2022-12-08T11:32:41;23.58;;;11.80;;
58137;SDS011;43955;47.362;18.930;2022-12-08T11:35:22;26.20;;;11.80;;
58137;SDS011;43955;47.362;18.930;2022-12-08T11:37:53;23.40;;;12.77;;
58137;SDS011;43955;47.362;18.930;2022-12-08T11:40:42;22.87;;;11.65;;
58137;SDS011;43955;47.362;18.930;2022-12-08T11:46:14;25.67;;;12.05;;
58137;SDS011;43955;47.362;18.930;2022-12-08T11:48:55;21.75;;;11.73;;
58137;SDS011;43955;47.362;18.930;2022-12-08T11:56:48;28.05;;;14.63;;
58137;SDS011;43955;47.362;18.930;2022-12-08T11:59:35;26.08;;;12.68;;
58137;SDS011;43955;47.362;18.930;2022-12-08T12:02:11;26.77;;;12.52;;
58137;SDS011;43955;47.362;18.930;2022-12-08T12:07:39;29.33;;;11.40;;
58137;SDS011;43955;47.362;18.930;2022-12-08T12:18:46;37.58;;;11.12;;
58137;SDS011;43955;47.362;18.930;2022-12-08T12:21:19;18.77;;;10.32;;
58137;SDS011;43955;47.362;18.930;2022-12-08T12:26:19;32.40;;;11.98;;
58137;SDS011;43955;47.362;18.930;2022-12-08T12:28:49;24.08;;;12.55;;
58137;SDS011;43955;47.362;18.930;2022-12-08T12:31:28;21.75;;;10.80;;
58137;SDS011;43955;47.362;18.930;2022-12-08T12:34:10;19.25;;;10.23;;
58137;SDS011;43955;47.362;18.930;2022-12-08T12:36:51;23.95;;;10.93;;
58137;SDS011;43955;47.362;18.930;2022-12-08T12:39:29;24.83;;;12.37;;
58137;SDS011;43955;47.362;18.930;2022-12-08T12:42:01;22.10;;;10.52;;
58137;SDS011;43955;47.362;18.930;2022-12-08T12:47:00;23.08;;;11.15;;
58137;SDS011;43955;47.362;18.930;2022-12-08T12:54:41;24.60;;;11.57;;
58137;SDS011;43955;47.362;18.930;2022-12-08T13:07:30;24.25;;;10.95;;
58137;SDS011;43955;47.362;18.930;2022-12-08T13:12:35;23.00;;;11.30;;
58137;SDS011;43955;47.362;18.930;2022-12-08T13:15:04;22.35;;;11.85;;
58137;SDS011;43955;47.362;18.930;2022-12-08T13:17:32;22.85;;;11.18;;
58137;SDS011;43955;47.362;18.930;2022-12-08T13:20:03;21.17;;;10.07;;
58137;SDS011;43955;47.362;18.930;2022-12-08T13:22:47;29.33;;;11.77;;
58137;SDS011;43955;47.362;18.930;2022-12-08T13:30:46;21.75;;;11.55;;
58137;SDS011;43955;47.362;18.930;2022-12-08T13:36:20;30.00;;;13.88;;
58137;SDS011;43955;47.362;18.930;2022-12-08T13:38:50;23.62;;;11.65;;
58137;SDS011;43955;47.362;18.930;2022-12-08T13:41:23;25.88;;;12.43;;
58137;SDS011;43955;47.362;18.930;2022-12-08T13:44:08;30.25;;;12.48;;
58137;SDS011;43955;47.362;18.930;2022-12-08T13:47:00;26.00;;;11.98;;
58137;SDS011;43955;47.362;18.930;2022-12-08T13:49:52;23.12;;;12.30;;
58137;SDS011;43955;47.362;18.930;2022-12-08T13:56:10;39.90;;;12.73;;
58137;SDS011;43955;47.362;18.930;2022-12-08T13:58:51;25.60;;;11.90;;
58137;SDS011;43955;47.362;18.930;2022-12-08T14:01:42;18.85;;;10.02;;
58137;SDS011;43955;47.362;18.930;2022-12-08T14:04:20;22.15;;;10.07;;
58137;SDS011;43955;47.362;18.930;2022-12-08T14:07:08;34.05;;;12.70;;
58137;SDS011;43955;47.362;18.930;2022-12-08T14:09:37;24.73;;;12.77;;
58137;SDS011;43955;47.362;18.930;2022-12-08T14:12:06;24.63;;;10.75;;
58137;SDS011;43955;47.362;18.930;2022-12-08T14:14:39;22.70;;;11.93;;
58137;SDS011;43955;47.362;18.930;2022-12-08T14:17:28;26.48;;;12.20;;
58137;SDS011;43955;47.362;18.930;2022-12-08T14:19:56;21.10;;;11.73;;
58137;SDS011;43955;47.362;18.930;2022-12-08T14:22:36;24.10;;;11.90;;
58137;SDS011;43955;47.362;18.930;2022-12-08T14:25:05;21.30;;;11.48;;
58137;SDS011;43955;47.362;18.930;2022-12-08T14:27:36;20.50;;;11.68;;
58137;SDS011;43955;47.362;18.930;2022-12-08T14:32:45;40.63;;;13.23;;
58137;SDS011;43955;47.362;18.930;2022-12-08T14:35:18;21.27;;;12.30;;
58137;SDS011;43955;47.362;18.930;2022-12-08T14:37:47;22.87;;;11.43;;
58137;SDS011;43955;47.362;18.930;2022-12-08T14:40:32;23.20;;;11.77;;
58137;SDS011;43955;47.362;18.930;2022-12-08T14:51:02;26.12;;;12.23;;
58137;SDS011;43955;47.362;18.930;2022-12-08T14:53:36;23.75;;;13.38;;
58137;SDS011;43955;47.362;18.930;2022-12-08T14:56:06;33.78;;;18.85;;
58137;SDS011;43955;47.362;18.930;2022-12-08T14:58:35;22.90;;;12.00;;
58137;SDS011;43955;47.362;18.930;2022-12-08T15:01:02;21.58;;;12.25;;
58137;SDS011;43955;47.362;18.930;2022-12-08T15:03:32;24.30;;;11.82;;
58137;SDS011;43955;47.362;18.930;2022-12-08T15:06:02;25.88;;;12.82;;
58137;SDS011;43955;47.362;18.930;2022-12-08T15:08:31;21.98;;;11.98;;
58137;SDS011;43955;47.362;18.930;2022-12-08T15:11:12;22.17;;;12.50;;
58137;SDS011;43955;47.362;18.930;2022-12-08T15:13:48;22.55;;;11.80;;
58137;SDS011;43955;47.362;18.930;2022-12-08T15:19:12;25.65;;;10.93;;
58137;SDS011;43955;47.362;18.930;2022-12-08T15:21:43;23.77;;;12.05;;
58137;SDS011;43955;47.362;18.930;2022-12-08T15:24:11;26.77;;;13.50;;
58137;SDS011;43955;47.362;18.930;2022-12-08T15:26:48;26.50;;;13.48;;
58137;SDS011;43955;47.362;18.930;2022-12-08T15:29:18;30.45;;;14.38;;
58137;SDS011;43955;47.362;18.930;2022-12-08T15:31:54;27.67;;;15.52;;
58137;SDS011;43955;47.362;18.930;2022-12-08T15:34:23;29.87;;;14.20;;
58137;SDS011;43955;47.362;18.930;2022-12-08T15:36:51;31.90;;;13.32;;
58137;SDS011;43955;47.362;18.930;2022-12-08T15:39:37;25.17;;;14.10;;
58137;SDS011;43955;47.362;18.930;2022-12-08T15:42:08;30.70;;;16.75;;
58137;SDS011;43955;47.362;18.930;2022-12-08T15:44:37;29.67;;;15.55;;
58137;SDS011;43955;47.362;18.930;2022-12-08T15:47:13;26.60;;;12.98;;
58137;SDS011;43955;47.362;18.930;2022-12-08T15:49:42;29.00;;;14.05;;
58137;SDS011;43955;47.362;18.930;2022-12-08T15:52:14;25.55;;;14.77;;
58137;SDS011;43955;47.362;18.930;2022-12-08T15:54:42;58.95;;;26.67;;
58137;SDS011;43955;47.362;18.930;2022-12-08T15:57:15;46.70;;;21.55;;
58137;SDS011;43955;47.362;18.930;2022-12-08T16:00:05;44.22;;;20.35;;
58137;SDS011;43955;47.362;18.930;2022-12-08T16:02:53;30.88;;;14.27;;
58137;SDS011;43955;47.362;18.930;2022-12-08T16:05:41;38.25;;;18.30;;
58137;SDS011;43955;47.362;18.930;2022-12-08T16:08:28;40.40;;;17.85;;
58137;SDS011;43955;47.362;18.930;2022-12-08T16:11:15;34.13;;;17.98;;
58137;SDS011;43955;47.362;18.930;2022-12-08T16:14:21;26.37;;;14.65;;
58137;SDS011;43955;47.362;18.930;2022-12-08T16:17:12;24.08;;;12.32;;
58137;SDS011;43955;47.362;18.930;2022-12-08T16:19:40;29.85;;;15.50;;
58137;SDS011;43955;47.362;18.930;2022-12-08T16:22:12;27.17;;;14.35;;
58137;SDS011;43955;47.362;18.930;2022-12-08T16:25:03;31.02;;;15.45;;
58137;SDS011;43955;47.362;18.930;2022-12-08T16:27:44;29.00;;;15.15;;
58137;SDS011;43955;47.362;18.930;2022-12-08T16:30:32;32.88;;;17.35;;
58137;SDS011;43955;47.362;18.930;2022-12-08T16:32:59;29.40;;;14.60;;
58137;SDS011;43955;47.362;18.930;2022-12-08T16:35:28;24.67;;;13.70;;
58137;SDS011;43955;47.362;18.930;2022-12-08T16:37:56;26.02;;;13.25;;
58137;SDS011;43955;47.362;18.930;2022-12-08T16:40:26;24.50;;;12.73;;
58137;SDS011;43955;47.362;18.930;2022-12-08T16:42:53;34.85;;;15.82;;